createdAt,value
2017-11-04T00:00:12.600Z,0
2017-11-04T00:00:45.765Z,0
2017-11-04T00:01:18.016Z,0
2017-11-04T00:01:50.090Z,0
2017-11-04T00:02:22.287Z,0
2017-11-04T00:02:54.503Z,0
2017-11-04T00:03:26.638Z,0
2017-11-04T00:03:58.805Z,0
2017-11-04T00:04:30.938Z,0
2017-11-04T00:05:03.137Z,0
2017-11-04T00:05:35.264Z,0
2017-11-04T00:06:07.324Z,0
2017-11-04T00:06:39.454Z,0
2017-11-04T00:07:11.573Z,0
2017-11-04T00:07:44.155Z,0
2017-11-04T00:08:16.326Z,0
2017-11-04T00:08:48.469Z,0
2017-11-04T00:09:20.695Z,0
2017-11-04T00:09:52.844Z,0
2017-11-04T00:10:25.005Z,0
2017-11-04T00:10:57.085Z,0
2017-11-04T00:11:29.206Z,0
2017-11-04T00:12:01.286Z,0
2017-11-04T00:12:33.417Z,0
2017-11-04T00:13:05.667Z,0
2017-11-04T00:13:37.860Z,0
2017-11-04T00:14:09.935Z,0
2017-11-04T00:14:42.144Z,0
2017-11-04T00:15:14.959Z,0
2017-11-04T00:15:47.139Z,0
2017-11-04T00:16:19.248Z,0
2017-11-04T00:16:51.528Z,0
2017-11-04T00:17:23.621Z,0
2017-11-04T00:17:55.861Z,0
2017-11-04T00:18:27.869Z,0
2017-11-04T00:19:00.075Z,0
2017-11-04T00:19:32.151Z,0
2017-11-04T00:20:04.334Z,0
2017-11-04T00:20:36.544Z,0
2017-11-04T00:21:08.624Z,0
2017-11-04T00:21:40.648Z,0
2017-11-04T00:22:12.721Z,0
2017-11-04T00:22:44.916Z,0
2017-11-04T00:23:17.718Z,0
2017-11-04T00:23:49.812Z,0
2017-11-04T00:24:21.939Z,0
2017-11-04T00:24:54.080Z,0
2017-11-04T00:25:26.292Z,0
2017-11-04T00:25:58.379Z,0
2017-11-04T00:26:30.496Z,0
2017-11-04T00:27:02.625Z,0
2017-11-04T00:27:34.786Z,0
2017-11-04T00:28:06.989Z,0
2017-11-04T00:28:39.138Z,0
2017-11-04T00:29:11.327Z,0
2017-11-04T00:29:43.537Z,0
2017-11-04T00:30:15.621Z,0
2017-11-04T00:30:47.768Z,0
2017-11-04T00:31:19.963Z,0
2017-11-04T00:31:52.091Z,0
2017-11-04T00:32:24.239Z,0
2017-11-04T00:32:56.469Z,0
2017-11-04T00:33:28.604Z,0
2017-11-04T00:34:00.678Z,0
2017-11-04T00:34:32.833Z,0
2017-11-04T00:35:04.910Z,0
2017-11-04T00:35:37.059Z,0
2017-11-04T00:36:09.283Z,0
2017-11-04T00:36:41.422Z,0
2017-11-04T00:37:13.564Z,0
2017-11-04T00:37:45.754Z,0
2017-11-04T00:38:17.833Z,0
2017-11-04T00:38:49.979Z,0
2017-11-04T00:39:22.104Z,0
2017-11-04T00:39:54.255Z,0
2017-11-04T00:40:26.363Z,0
2017-11-04T00:40:58.494Z,0
2017-11-04T00:41:30.533Z,0
2017-11-04T00:42:02.782Z,0
2017-11-04T00:42:34.870Z,0
2017-11-04T00:43:07.036Z,0
2017-11-04T00:43:39.325Z,0
2017-11-04T00:44:11.401Z,0
2017-11-04T00:44:43.586Z,0
2017-11-04T00:45:15.722Z,0
2017-11-04T00:45:47.859Z,0
2017-11-04T00:46:19.981Z,0
2017-11-04T00:46:52.001Z,0
2017-11-04T00:47:24.153Z,0
2017-11-04T00:47:56.400Z,0
2017-11-04T00:48:28.589Z,0
2017-11-04T00:49:00.729Z,0
2017-11-04T00:49:32.863Z,0
2017-11-04T00:50:05.101Z,0
2017-11-04T00:50:37.135Z,0
2017-11-04T00:51:09.253Z,0
2017-11-04T00:51:41.424Z,0
2017-11-04T00:52:13.453Z,0
2017-11-04T00:52:45.614Z,0
2017-11-04T00:53:17.785Z,0
2017-11-04T00:53:49.800Z,0
2017-11-04T00:54:21.932Z,0
2017-11-04T00:54:54.050Z,0
2017-11-04T00:55:26.071Z,0
2017-11-04T00:55:58.406Z,0
2017-11-04T00:56:30.582Z,0
2017-11-04T00:57:02.742Z,0
2017-11-04T00:57:34.815Z,0
2017-11-04T00:58:07.029Z,0
2017-11-04T00:58:39.184Z,0
2017-11-04T00:59:11.308Z,0
2017-11-04T00:59:43.484Z,0
2017-11-04T01:00:15.665Z,0
2017-11-04T01:00:47.735Z,0
2017-11-04T01:01:19.983Z,0
2017-11-04T01:01:52.179Z,0
2017-11-04T01:02:24.472Z,0
2017-11-04T01:02:56.673Z,0
2017-11-04T01:03:28.774Z,0
2017-11-04T01:04:00.969Z,0
2017-11-04T01:04:33.305Z,0
2017-11-04T01:05:05.382Z,0
2017-11-04T01:05:37.456Z,0
2017-11-04T01:06:09.651Z,0
2017-11-04T01:06:41.836Z,0
2017-11-04T01:07:14.038Z,0
2017-11-04T01:07:46.241Z,0
2017-11-04T01:08:19.424Z,0
2017-11-04T01:08:51.635Z,0
2017-11-04T01:09:23.833Z,0
2017-11-04T01:09:56.083Z,0
2017-11-04T01:10:28.164Z,0
2017-11-04T01:11:00.296Z,0
2017-11-04T01:11:32.527Z,0
2017-11-04T01:12:04.665Z,0
2017-11-04T01:12:36.852Z,0
2017-11-04T01:13:08.981Z,0
2017-11-04T01:13:41.171Z,0
2017-11-04T01:14:13.256Z,0
2017-11-04T01:14:45.279Z,0
2017-11-04T01:15:17.483Z,0
2017-11-04T01:15:49.683Z,0
2017-11-04T01:16:21.972Z,0
2017-11-04T01:16:54.062Z,0
2017-11-04T01:17:26.211Z,0
2017-11-04T01:17:58.300Z,0
2017-11-04T01:18:30.553Z,0
2017-11-04T01:19:02.641Z,0
2017-11-04T01:19:34.783Z,0
2017-11-04T01:20:06.926Z,0
2017-11-04T01:20:38.982Z,0
2017-11-04T01:21:11.129Z,0
2017-11-04T01:21:43.322Z,0
2017-11-04T01:22:15.524Z,0
2017-11-04T01:22:47.662Z,0
2017-11-04T01:23:19.743Z,0
2017-11-04T01:23:51.758Z,0
2017-11-04T01:24:23.889Z,0
2017-11-04T01:24:55.910Z,0
2017-11-04T01:25:28.100Z,0
2017-11-04T01:26:00.309Z,0
2017-11-04T01:26:32.479Z,0
2017-11-04T01:27:04.630Z,0
2017-11-04T01:27:36.767Z,0
2017-11-04T01:28:08.782Z,0
2017-11-04T01:28:40.960Z,0
2017-11-04T01:29:13.148Z,0
2017-11-04T01:29:45.312Z,0
2017-11-04T01:30:17.505Z,0
2017-11-04T01:30:49.590Z,0
2017-11-04T01:31:21.786Z,0
2017-11-04T01:31:54.032Z,0
2017-11-04T01:32:26.236Z,0
2017-11-04T01:32:58.434Z,0
2017-11-04T01:33:30.573Z,0
2017-11-04T01:34:02.773Z,0
2017-11-04T01:34:34.915Z,0
2017-11-04T01:35:06.996Z,0
2017-11-04T01:35:39.092Z,0
2017-11-04T01:36:11.149Z,0
2017-11-04T01:36:43.208Z,0
2017-11-04T01:37:15.270Z,0
2017-11-04T01:37:47.343Z,0
2017-11-04T01:38:19.440Z,0
2017-11-04T01:38:51.624Z,0
2017-11-04T01:39:23.755Z,0
2017-11-04T01:39:55.844Z,0
2017-11-04T01:40:28.031Z,0
2017-11-04T01:41:00.099Z,0
2017-11-04T01:41:32.248Z,0
2017-11-04T01:42:04.492Z,0
2017-11-04T01:42:36.686Z,0
2017-11-04T01:43:08.919Z,0
2017-11-04T01:43:41.056Z,0
2017-11-04T01:44:13.264Z,0
2017-11-04T01:44:45.337Z,0
2017-11-04T01:45:17.482Z,0
2017-11-04T01:45:50.502Z,0
2017-11-04T01:46:22.715Z,0
2017-11-04T01:46:54.935Z,0
2017-11-04T01:47:27.072Z,0
2017-11-04T01:47:59.265Z,0
2017-11-04T01:48:31.432Z,0
2017-11-04T01:49:03.503Z,0
2017-11-04T01:49:35.585Z,0
2017-11-04T01:50:07.720Z,0
2017-11-04T01:50:39.902Z,0
2017-11-04T01:51:11.990Z,0
2017-11-04T01:51:44.164Z,0
2017-11-04T01:52:16.235Z,0
2017-11-04T01:52:48.453Z,0
2017-11-04T01:53:20.636Z,0
2017-11-04T01:53:52.646Z,0
2017-11-04T01:54:24.834Z,0
2017-11-04T01:54:56.968Z,0
2017-11-04T01:55:29.097Z,0
2017-11-04T01:56:01.126Z,0
2017-11-04T01:56:33.321Z,0
2017-11-04T01:57:05.434Z,0
2017-11-04T01:57:37.549Z,0
2017-11-04T01:58:09.755Z,0
2017-11-04T01:58:41.780Z,0
2017-11-04T01:59:13.851Z,0
2017-11-04T01:59:46.041Z,0
2017-11-04T02:00:18.256Z,0
2017-11-04T02:00:50.358Z,0
2017-11-04T02:01:22.417Z,0
2017-11-04T02:01:54.666Z,0
2017-11-04T02:02:26.802Z,0
2017-11-04T02:02:58.978Z,0
2017-11-04T02:03:30.998Z,0
2017-11-04T02:04:03.030Z,0
2017-11-04T02:04:35.245Z,0
2017-11-04T02:05:07.461Z,0
2017-11-04T02:05:39.631Z,0
2017-11-04T02:06:11.760Z,0
2017-11-04T02:06:43.962Z,0
2017-11-04T02:07:16.108Z,0
2017-11-04T02:07:48.166Z,0
2017-11-04T02:08:20.233Z,0
2017-11-04T02:08:52.325Z,0
2017-11-04T02:09:24.541Z,0
2017-11-04T02:09:56.554Z,0
2017-11-04T02:10:28.636Z,0
2017-11-04T02:11:00.788Z,0
2017-11-04T02:11:33.099Z,0
2017-11-04T02:12:05.290Z,0
2017-11-04T02:12:37.441Z,0
2017-11-04T02:13:09.613Z,0
2017-11-04T02:13:41.738Z,0
2017-11-04T02:14:13.916Z,0
2017-11-04T02:14:46.949Z,0
2017-11-04T02:15:18.974Z,0
2017-11-04T02:15:51.074Z,0
2017-11-04T02:16:23.319Z,0
2017-11-04T02:16:55.552Z,0
2017-11-04T02:17:27.798Z,0
2017-11-04T02:17:59.942Z,0
2017-11-04T02:18:31.998Z,0
2017-11-04T02:19:04.091Z,0
2017-11-04T02:19:36.330Z,0
2017-11-04T02:20:08.491Z,0
2017-11-04T02:20:40.528Z,0
2017-11-04T02:21:12.755Z,0
2017-11-04T02:21:44.936Z,0
2017-11-04T02:22:17.124Z,0
2017-11-04T02:22:49.884Z,0
2017-11-04T02:23:21.974Z,0
2017-11-04T02:23:54.173Z,0
2017-11-04T02:24:26.301Z,0
2017-11-04T02:24:58.426Z,0
2017-11-04T02:25:30.574Z,0
2017-11-04T02:26:02.658Z,0
2017-11-04T02:26:34.783Z,0
2017-11-04T02:27:07.021Z,0
2017-11-04T02:27:39.114Z,0
2017-11-04T02:28:11.244Z,0
2017-11-04T02:28:43.492Z,0
2017-11-04T02:29:15.641Z,0
2017-11-04T02:29:47.758Z,0
2017-11-04T02:30:19.770Z,0
2017-11-04T02:30:51.896Z,0
2017-11-04T02:31:24.090Z,0
2017-11-04T02:31:56.278Z,0
2017-11-04T02:32:28.411Z,0
2017-11-04T02:33:00.590Z,0
2017-11-04T02:33:32.788Z,0
2017-11-04T02:34:04.816Z,0
2017-11-04T02:34:37.047Z,0
2017-11-04T02:35:10.042Z,0
2017-11-04T02:35:42.382Z,0
2017-11-04T02:36:14.516Z,0
2017-11-04T02:36:46.649Z,0
2017-11-04T02:37:18.830Z,0
2017-11-04T02:37:51.032Z,0
2017-11-04T02:38:23.195Z,0
2017-11-04T02:38:55.394Z,0
2017-11-04T02:39:27.444Z,0
2017-11-04T02:39:59.585Z,0
2017-11-04T02:40:31.658Z,0
2017-11-04T02:41:03.793Z,0
2017-11-04T02:41:35.932Z,0
2017-11-04T02:42:08.127Z,0
2017-11-04T02:42:40.371Z,0
2017-11-04T02:43:12.560Z,0
2017-11-04T02:43:44.796Z,0
2017-11-04T02:44:16.982Z,0
2017-11-04T02:44:49.074Z,0
2017-11-04T02:45:21.285Z,0
2017-11-04T02:45:53.438Z,0
2017-11-04T02:46:25.588Z,0
2017-11-04T02:46:57.678Z,0
2017-11-04T02:47:29.761Z,0
2017-11-04T02:48:01.827Z,0
2017-11-04T02:48:33.933Z,0
2017-11-04T02:49:06.088Z,0
2017-11-04T02:49:38.168Z,0
2017-11-04T02:50:10.356Z,0
2017-11-04T02:50:42.516Z,0
2017-11-04T02:51:14.730Z,0
2017-11-04T02:51:46.821Z,0
2017-11-04T02:52:18.967Z,0
2017-11-04T02:52:51.041Z,0
2017-11-04T02:53:23.177Z,0
2017-11-04T02:53:55.348Z,0
2017-11-04T02:54:27.478Z,0
2017-11-04T02:54:59.680Z,0
2017-11-04T02:55:31.828Z,0
2017-11-04T02:56:03.991Z,0
2017-11-04T02:56:36.172Z,0
2017-11-04T02:57:08.348Z,0
2017-11-04T02:57:40.452Z,0
2017-11-04T02:58:12.638Z,0
2017-11-04T02:58:44.784Z,0
2017-11-04T02:59:16.802Z,0
2017-11-04T02:59:48.828Z,0
2017-11-04T03:00:20.840Z,0
2017-11-04T03:00:53.056Z,0
2017-11-04T03:01:25.137Z,0
2017-11-04T03:01:57.220Z,0
2017-11-04T03:02:29.454Z,0
2017-11-04T03:03:01.576Z,0
2017-11-04T03:03:33.582Z,0
2017-11-04T03:04:05.607Z,0
2017-11-04T03:04:37.741Z,0
2017-11-04T03:05:10.016Z,0
2017-11-04T03:05:42.313Z,0
2017-11-04T03:06:14.395Z,0
2017-11-04T03:06:46.539Z,0
2017-11-04T03:07:18.724Z,0
2017-11-04T03:07:50.915Z,0
2017-11-04T03:08:23.173Z,0
2017-11-04T03:08:55.262Z,0
2017-11-04T03:09:27.340Z,0
2017-11-04T03:09:59.488Z,0
2017-11-04T03:10:31.543Z,0
2017-11-04T03:11:03.717Z,0
2017-11-04T03:11:35.922Z,0
2017-11-04T03:12:07.926Z,0
2017-11-04T03:12:40.113Z,0
2017-11-04T03:13:12.281Z,0
2017-11-04T03:13:44.364Z,0
2017-11-04T03:14:16.542Z,0
2017-11-04T03:14:48.618Z,0
2017-11-04T03:15:20.821Z,0
2017-11-04T03:15:52.893Z,0
2017-11-04T03:16:24.982Z,0
2017-11-04T03:16:57.034Z,0
2017-11-04T03:17:29.240Z,0
2017-11-04T03:18:01.555Z,0
2017-11-04T03:18:33.780Z,0
2017-11-04T03:19:06.540Z,0
2017-11-04T03:19:38.671Z,0
2017-11-04T03:20:11.441Z,0
2017-11-04T03:20:43.512Z,0
2017-11-04T03:21:15.571Z,0
2017-11-04T03:21:47.648Z,0
2017-11-04T03:22:19.761Z,0
2017-11-04T03:22:51.954Z,0
2017-11-04T03:23:24.045Z,0
2017-11-04T03:23:56.128Z,0
2017-11-04T03:24:28.250Z,0
2017-11-04T03:25:00.496Z,0
2017-11-04T03:25:32.570Z,0
2017-11-04T03:26:04.702Z,0
2017-11-04T03:26:36.846Z,0
2017-11-04T03:27:09.089Z,0
2017-11-04T03:27:41.176Z,0
2017-11-04T03:28:13.251Z,0
2017-11-04T03:28:45.502Z,0
2017-11-04T03:29:17.701Z,0
2017-11-04T03:29:49.818Z,0
2017-11-04T03:30:21.969Z,0
2017-11-04T03:30:54.113Z,0
2017-11-04T03:31:26.134Z,0
2017-11-04T03:31:58.220Z,0
2017-11-04T03:32:30.437Z,0
2017-11-04T03:33:02.615Z,0
2017-11-04T03:33:34.787Z,0
2017-11-04T03:34:07.120Z,0
2017-11-04T03:34:39.374Z,0
2017-11-04T03:35:11.523Z,0
2017-11-04T03:35:43.673Z,0
2017-11-04T03:36:15.878Z,0
2017-11-04T03:36:48.122Z,0
2017-11-04T03:37:20.259Z,0
2017-11-04T03:37:52.430Z,0
2017-11-04T03:38:24.449Z,0
2017-11-04T03:38:56.531Z,0
2017-11-04T03:39:28.678Z,0
2017-11-04T03:40:00.696Z,0
2017-11-04T03:40:32.807Z,0
2017-11-04T03:41:04.981Z,0
2017-11-04T03:41:37.239Z,0
2017-11-04T03:42:09.526Z,0
2017-11-04T03:42:41.700Z,0
2017-11-04T03:43:13.819Z,0
2017-11-04T03:43:45.895Z,0
2017-11-04T03:44:17.994Z,0
2017-11-04T03:44:50.198Z,0
2017-11-04T03:45:22.232Z,0
2017-11-04T03:45:54.551Z,0
2017-11-04T03:46:26.704Z,0
2017-11-04T03:46:58.887Z,0
2017-11-04T03:47:31.116Z,0
2017-11-04T03:48:03.254Z,0
2017-11-04T03:48:35.382Z,0
2017-11-04T03:49:07.504Z,0
2017-11-04T03:49:39.587Z,0
2017-11-04T03:50:11.821Z,0
2017-11-04T03:50:43.904Z,0
2017-11-04T03:51:16.165Z,0
2017-11-04T03:51:48.353Z,0
2017-11-04T03:52:20.538Z,0
2017-11-04T03:52:52.656Z,0
2017-11-04T03:53:24.743Z,0
2017-11-04T03:53:56.821Z,0
2017-11-04T03:54:29.046Z,0
2017-11-04T03:55:01.179Z,0
2017-11-04T03:55:33.449Z,0
2017-11-04T03:56:05.772Z,0
2017-11-04T03:56:37.906Z,0
2017-11-04T03:57:10.112Z,0
2017-11-04T03:57:42.351Z,0
2017-11-04T03:58:14.427Z,0
2017-11-04T03:58:46.579Z,0
2017-11-04T03:59:18.681Z,0
2017-11-04T03:59:51.016Z,0
2017-11-04T04:00:23.197Z,0
2017-11-04T04:00:55.338Z,0
2017-11-04T04:01:27.364Z,0
2017-11-04T04:01:59.496Z,0
2017-11-04T04:02:31.575Z,0
2017-11-04T04:03:03.781Z,0
2017-11-04T04:03:35.967Z,0
2017-11-04T04:04:08.039Z,0
2017-11-04T04:04:40.248Z,0
2017-11-04T04:05:12.437Z,0
2017-11-04T04:05:44.638Z,0
2017-11-04T04:06:16.828Z,0
2017-11-04T04:06:48.971Z,0
2017-11-04T04:07:21.205Z,0
2017-11-04T04:07:53.515Z,0
2017-11-04T04:08:25.757Z,0
2017-11-04T04:08:57.885Z,0
2017-11-04T04:09:29.998Z,0
2017-11-04T04:10:02.044Z,0
2017-11-04T04:10:34.161Z,0
2017-11-04T04:11:06.187Z,0
2017-11-04T04:11:38.400Z,0
2017-11-04T04:12:10.427Z,0
2017-11-04T04:12:42.623Z,0
2017-11-04T04:13:14.758Z,0
2017-11-04T04:13:47.016Z,0
2017-11-04T04:14:19.130Z,0
2017-11-04T04:14:51.844Z,0
2017-11-04T04:15:23.971Z,0
2017-11-04T04:15:56.106Z,0
2017-11-04T04:16:28.298Z,0
2017-11-04T04:17:00.485Z,0
2017-11-04T04:17:32.606Z,0
2017-11-04T04:18:04.768Z,0
2017-11-04T04:18:36.872Z,0
2017-11-04T04:19:08.995Z,0
2017-11-04T04:19:41.127Z,0
2017-11-04T04:20:13.290Z,0
2017-11-04T04:20:45.428Z,0
2017-11-04T04:21:17.566Z,0
2017-11-04T04:21:49.698Z,0
2017-11-04T04:22:21.789Z,0
2017-11-04T04:22:53.875Z,0
2017-11-04T04:23:26.008Z,0
2017-11-04T04:23:58.083Z,0
2017-11-04T04:24:30.163Z,0
2017-11-04T04:25:02.318Z,0
2017-11-04T04:25:34.415Z,0
2017-11-04T04:26:06.511Z,0
2017-11-04T04:26:38.721Z,0
2017-11-04T04:27:10.911Z,0
2017-11-04T04:27:42.988Z,0
2017-11-04T04:28:15.073Z,0
2017-11-04T04:28:47.160Z,0
2017-11-04T04:29:19.410Z,0
2017-11-04T04:29:51.570Z,0
2017-11-04T04:30:23.762Z,0
2017-11-04T04:30:55.854Z,0
2017-11-04T04:31:27.942Z,0
2017-11-04T04:32:00.086Z,0
2017-11-04T04:32:32.160Z,0
2017-11-04T04:33:04.238Z,0
2017-11-04T04:33:36.364Z,0
2017-11-04T04:34:08.495Z,0
2017-11-04T04:34:40.659Z,0
2017-11-04T04:35:12.851Z,0
2017-11-04T04:35:44.876Z,0
2017-11-04T04:36:17.066Z,0
2017-11-04T04:36:49.220Z,0
2017-11-04T04:37:21.407Z,0
2017-11-04T04:37:53.502Z,0
2017-11-04T04:38:25.590Z,0
2017-11-04T04:38:58.603Z,0
2017-11-04T04:39:30.843Z,0
2017-11-04T04:40:03.113Z,0
2017-11-04T04:40:35.248Z,0
2017-11-04T04:41:07.465Z,0
2017-11-04T04:41:39.701Z,0
2017-11-04T04:42:11.840Z,0
2017-11-04T04:42:44.053Z,0
2017-11-04T04:43:16.302Z,0
2017-11-04T04:43:48.363Z,0
2017-11-04T04:44:20.491Z,0
2017-11-04T04:44:52.564Z,0
2017-11-04T04:45:24.763Z,0
2017-11-04T04:45:56.906Z,0
2017-11-04T04:46:29.052Z,0
2017-11-04T04:47:01.298Z,0
2017-11-04T04:47:33.485Z,0
2017-11-04T04:48:05.775Z,0
2017-11-04T04:48:37.870Z,0
2017-11-04T04:49:09.951Z,0
2017-11-04T04:49:42.100Z,0
2017-11-04T04:50:14.235Z,0
2017-11-04T04:50:46.367Z,0
2017-11-04T04:51:18.442Z,0
2017-11-04T04:51:50.481Z,0
2017-11-04T04:52:22.801Z,0
2017-11-04T04:52:54.948Z,0
2017-11-04T04:53:27.074Z,0
2017-11-04T04:53:59.295Z,0
2017-11-04T04:54:31.544Z,0
2017-11-04T04:55:03.750Z,0
2017-11-04T04:55:35.948Z,0
2017-11-04T04:56:08.132Z,0
2017-11-04T04:56:40.276Z,0
2017-11-04T04:57:12.420Z,0
2017-11-04T04:57:44.519Z,0
2017-11-04T04:58:16.695Z,0
2017-11-04T04:58:48.900Z,0
2017-11-04T04:59:20.971Z,0
2017-11-04T04:59:53.061Z,0
2017-11-04T05:00:25.137Z,0
2017-11-04T05:00:57.275Z,0
2017-11-04T05:01:29.352Z,0
2017-11-04T05:02:01.371Z,0
2017-11-04T05:02:33.454Z,0
2017-11-04T05:03:05.647Z,0
2017-11-04T05:03:37.745Z,0
2017-11-04T05:04:09.929Z,0
2017-11-04T05:04:42.030Z,0
2017-11-04T05:05:14.099Z,0
2017-11-04T05:05:46.122Z,0
2017-11-04T05:06:18.205Z,0
2017-11-04T05:06:50.400Z,0
2017-11-04T05:07:22.601Z,0
2017-11-04T05:07:54.685Z,0
2017-11-04T05:08:26.829Z,0
2017-11-04T05:08:59.104Z,0
2017-11-04T05:09:31.262Z,0
2017-11-04T05:10:03.367Z,0
2017-11-04T05:10:35.603Z,0
2017-11-04T05:11:07.735Z,0
2017-11-04T05:11:39.855Z,0
2017-11-04T05:12:12.057Z,0
2017-11-04T05:12:44.377Z,0
2017-11-04T05:13:16.507Z,0
2017-11-04T05:13:48.546Z,0
2017-11-04T05:14:20.731Z,0
2017-11-04T05:14:52.763Z,0
2017-11-04T05:15:24.878Z,0
2017-11-04T05:15:56.950Z,0
2017-11-04T05:16:29.141Z,0
2017-11-04T05:17:01.211Z,0
2017-11-04T05:17:33.463Z,0
2017-11-04T05:18:05.664Z,0
2017-11-04T05:18:37.872Z,0
2017-11-04T05:19:09.886Z,0
2017-11-04T05:19:42.024Z,0
2017-11-04T05:20:14.043Z,0
2017-11-04T05:20:46.163Z,0
2017-11-04T05:21:18.340Z,0
2017-11-04T05:21:50.435Z,0
2017-11-04T05:22:22.459Z,0
2017-11-04T05:22:54.711Z,0
2017-11-04T05:23:26.754Z,0
2017-11-04T05:23:58.881Z,0
2017-11-04T05:24:31.007Z,0
2017-11-04T05:25:03.151Z,0
2017-11-04T05:25:35.271Z,0
2017-11-04T05:26:07.357Z,0
2017-11-04T05:26:39.545Z,0
2017-11-04T05:27:11.745Z,0
2017-11-04T05:27:43.891Z,0
2017-11-04T05:28:16.118Z,0
2017-11-04T05:28:48.316Z,0
2017-11-04T05:29:20.414Z,0
2017-11-04T05:29:52.484Z,0
2017-11-04T05:30:24.722Z,0
2017-11-04T05:30:56.806Z,0
2017-11-04T05:31:28.877Z,0
2017-11-04T05:32:00.972Z,0
2017-11-04T05:32:33.186Z,0
2017-11-04T05:33:05.339Z,0
2017-11-04T05:33:37.377Z,0
2017-11-04T05:34:09.389Z,0
2017-11-04T05:34:42.141Z,0
2017-11-04T05:35:14.319Z,0
2017-11-04T05:35:46.530Z,0
2017-11-04T05:36:18.820Z,0
2017-11-04T05:36:50.953Z,0
2017-11-04T05:37:23.107Z,0
2017-11-04T05:37:55.242Z,0
2017-11-04T05:38:27.323Z,0
2017-11-04T05:38:59.527Z,0
2017-11-04T05:39:31.700Z,0
2017-11-04T05:40:03.786Z,0
2017-11-04T05:40:35.988Z,0
2017-11-04T05:41:08.612Z,0
2017-11-04T05:41:40.802Z,0
2017-11-04T05:42:12.972Z,0
2017-11-04T05:42:44.994Z,0
2017-11-04T05:43:17.129Z,0
2017-11-04T05:43:49.320Z,0
2017-11-04T05:44:21.443Z,0
2017-11-04T05:44:53.629Z,0
2017-11-04T05:45:25.767Z,0
2017-11-04T05:45:57.859Z,0
2017-11-04T05:46:30.008Z,0
2017-11-04T05:47:02.621Z,0
2017-11-04T05:47:34.781Z,0
2017-11-04T05:48:06.908Z,0
2017-11-04T05:48:38.974Z,0
2017-11-04T05:49:11.116Z,0
2017-11-04T05:49:43.237Z,0
2017-11-04T05:50:15.327Z,0
2017-11-04T05:50:47.604Z,0
2017-11-04T05:51:19.742Z,0
2017-11-04T05:51:51.863Z,0
2017-11-04T05:52:23.936Z,0
2017-11-04T05:52:55.946Z,0
2017-11-04T05:53:28.024Z,0
2017-11-04T05:54:00.037Z,0
2017-11-04T05:54:32.272Z,0
2017-11-04T05:55:05.032Z,0
2017-11-04T05:55:37.273Z,0
2017-11-04T05:56:09.529Z,0
2017-11-04T05:56:41.722Z,0
2017-11-04T05:57:13.932Z,0
2017-11-04T05:57:46.029Z,0
2017-11-04T05:58:18.207Z,0
2017-11-04T05:58:50.384Z,0
2017-11-04T05:59:22.510Z,0
2017-11-04T05:59:54.559Z,0
2017-11-04T06:00:26.691Z,0
2017-11-04T06:00:58.798Z,0
2017-11-04T06:01:31.023Z,0
2017-11-04T06:02:03.040Z,0
2017-11-04T06:02:35.173Z,0
2017-11-04T06:03:07.308Z,0
2017-11-04T06:03:39.518Z,0
2017-11-04T06:04:11.622Z,0
2017-11-04T06:04:43.767Z,0
2017-11-04T06:05:15.854Z,4
2017-11-04T06:05:47.871Z,4
2017-11-04T06:06:19.927Z,4
2017-11-04T06:06:52.162Z,4
2017-11-04T06:07:24.293Z,4
2017-11-04T06:07:56.422Z,4
2017-11-04T06:08:28.545Z,0
2017-11-04T06:09:00.578Z,4
2017-11-04T06:09:32.838Z,4
2017-11-04T06:10:05.007Z,4
2017-11-04T06:10:37.088Z,4
2017-11-04T06:11:09.219Z,8
2017-11-04T06:11:41.358Z,4
2017-11-04T06:12:13.489Z,4
2017-11-04T06:12:45.631Z,8
2017-11-04T06:13:17.844Z,4
2017-11-04T06:13:49.925Z,8
2017-11-04T06:14:22.021Z,4
2017-11-04T06:14:54.107Z,8
2017-11-04T06:15:26.239Z,8
2017-11-04T06:15:58.323Z,12
2017-11-04T06:16:30.510Z,12
2017-11-04T06:17:02.630Z,12
2017-11-04T06:17:35.484Z,16
2017-11-04T06:18:07.628Z,16
2017-11-04T06:18:39.766Z,16
2017-11-04T06:19:11.898Z,16
2017-11-04T06:19:44.003Z,16
2017-11-04T06:20:16.204Z,16
2017-11-04T06:20:48.381Z,20
2017-11-04T06:21:20.523Z,16
2017-11-04T06:21:52.651Z,20
2017-11-04T06:22:24.807Z,20
2017-11-04T06:22:56.975Z,24
2017-11-04T06:23:29.099Z,24
2017-11-04T06:24:01.131Z,24
2017-11-04T06:24:34.165Z,28
2017-11-04T06:25:06.381Z,28
2017-11-04T06:25:38.544Z,28
2017-11-04T06:26:10.809Z,32
2017-11-04T06:26:42.940Z,28
2017-11-04T06:27:15.187Z,32
2017-11-04T06:27:47.351Z,32
2017-11-04T06:28:19.438Z,36
2017-11-04T06:28:51.526Z,36
2017-11-04T06:29:23.671Z,40
2017-11-04T06:29:55.800Z,40
2017-11-04T06:30:28.003Z,44
2017-11-04T06:31:00.260Z,44
2017-11-04T06:31:32.375Z,44
2017-11-04T06:32:04.640Z,48
2017-11-04T06:32:36.814Z,52
2017-11-04T06:33:08.942Z,52
2017-11-04T06:33:41.130Z,52
2017-11-04T06:34:13.153Z,56
2017-11-04T06:34:45.274Z,56
2017-11-04T06:35:17.463Z,60
2017-11-04T06:35:49.599Z,60
2017-11-04T06:36:21.752Z,64
2017-11-04T06:36:53.947Z,68
2017-11-04T06:37:26.011Z,72
2017-11-04T06:37:58.176Z,72
2017-11-04T06:38:31.077Z,76
2017-11-04T06:39:03.168Z,80
2017-11-04T06:39:35.334Z,84
2017-11-04T06:40:07.421Z,84
2017-11-04T06:40:39.757Z,88
2017-11-04T06:41:11.893Z,92
2017-11-04T06:41:44.125Z,96
2017-11-04T06:42:16.245Z,100
2017-11-04T06:42:48.441Z,100
2017-11-04T06:43:20.518Z,104
2017-11-04T06:43:52.685Z,108
2017-11-04T06:44:24.918Z,112
2017-11-04T06:44:57.073Z,116
2017-11-04T06:45:29.157Z,120
2017-11-04T06:46:01.263Z,120
2017-11-04T06:46:33.348Z,124
2017-11-04T06:47:05.429Z,128
2017-11-04T06:47:37.470Z,132
2017-11-04T06:48:09.540Z,136
2017-11-04T06:48:41.695Z,140
2017-11-04T06:49:13.856Z,148
2017-11-04T06:49:46.179Z,148
2017-11-04T06:50:18.315Z,156
2017-11-04T06:50:50.452Z,160
2017-11-04T06:51:22.561Z,164
2017-11-04T06:51:54.803Z,172
2017-11-04T06:52:26.985Z,176
2017-11-04T06:52:59.158Z,180
2017-11-04T06:53:31.325Z,184
2017-11-04T06:54:03.507Z,192
2017-11-04T06:54:35.663Z,192
2017-11-04T06:55:07.743Z,200
2017-11-04T06:55:39.945Z,208
2017-11-04T06:56:12.094Z,212
2017-11-04T06:56:44.113Z,216
2017-11-04T06:57:16.336Z,220
2017-11-04T06:57:48.514Z,224
2017-11-04T06:58:20.715Z,228
2017-11-04T06:58:52.919Z,232
2017-11-04T06:59:25.051Z,236
2017-11-04T06:59:57.059Z,240
2017-11-04T07:00:29.112Z,244
2017-11-04T07:01:01.297Z,252
2017-11-04T07:01:34.214Z,252
2017-11-04T07:02:06.351Z,260
2017-11-04T07:02:38.386Z,264
2017-11-04T07:03:10.642Z,268
2017-11-04T07:03:42.748Z,276
2017-11-04T07:04:14.829Z,280
2017-11-04T07:04:46.951Z,288
2017-11-04T07:05:19.217Z,292
2017-11-04T07:05:51.275Z,296
2017-11-04T07:06:23.500Z,304
2017-11-04T07:06:55.593Z,312
2017-11-04T07:07:27.773Z,316
2017-11-04T07:07:59.859Z,324
2017-11-04T07:08:32.117Z,332
2017-11-04T07:09:04.242Z,336
2017-11-04T07:09:36.444Z,344
2017-11-04T07:10:08.538Z,352
2017-11-04T07:10:40.736Z,360
2017-11-04T07:11:12.918Z,368
2017-11-04T07:11:45.097Z,376
2017-11-04T07:12:17.232Z,384
2017-11-04T07:12:49.375Z,392
2017-11-04T07:13:21.625Z,400
2017-11-04T07:13:53.720Z,408
2017-11-04T07:14:25.888Z,416
2017-11-04T07:14:58.021Z,424
2017-11-04T07:15:30.123Z,432
2017-11-04T07:16:02.292Z,440
2017-11-04T07:16:34.431Z,444
2017-11-04T07:17:06.498Z,456
2017-11-04T07:17:38.525Z,460
2017-11-04T07:18:10.732Z,468
2017-11-04T07:18:42.896Z,472
2017-11-04T07:19:14.966Z,480
2017-11-04T07:19:47.170Z,488
2017-11-04T07:20:19.187Z,492
2017-11-04T07:20:51.375Z,496
2017-11-04T07:21:23.611Z,504
2017-11-04T07:21:55.640Z,508
2017-11-04T07:22:27.804Z,512
2017-11-04T07:22:59.886Z,512
2017-11-04T07:23:32.039Z,520
2017-11-04T07:24:04.135Z,524
2017-11-04T07:24:37.073Z,528
2017-11-04T07:25:09.119Z,524
2017-11-04T07:25:41.254Z,532
2017-11-04T07:26:13.483Z,532
2017-11-04T07:26:45.611Z,532
2017-11-04T07:27:17.834Z,536
2017-11-04T07:27:50.019Z,536
2017-11-04T07:28:22.153Z,536
2017-11-04T07:28:54.419Z,540
2017-11-04T07:29:26.504Z,544
2017-11-04T07:29:58.714Z,544
2017-11-04T07:30:30.805Z,544
2017-11-04T07:31:02.896Z,548
2017-11-04T07:31:35.130Z,556
2017-11-04T07:32:07.205Z,556
2017-11-04T07:32:39.240Z,560
2017-11-04T07:33:11.400Z,568
2017-11-04T07:33:43.679Z,572
2017-11-04T07:34:15.888Z,580
2017-11-04T07:34:48.013Z,588
2017-11-04T07:35:20.147Z,596
2017-11-04T07:35:52.285Z,608
2017-11-04T07:36:25.081Z,616
2017-11-04T07:36:57.242Z,624
2017-11-04T07:37:29.592Z,636
2017-11-04T07:38:01.743Z,644
2017-11-04T07:38:33.914Z,656
2017-11-04T07:39:06.047Z,664
2017-11-04T07:39:38.174Z,676
2017-11-04T07:40:10.328Z,684
2017-11-04T07:40:42.377Z,696
2017-11-04T07:41:14.569Z,704
2017-11-04T07:41:46.667Z,712
2017-11-04T07:42:18.761Z,720
2017-11-04T07:42:50.889Z,732
2017-11-04T07:43:23.028Z,736
2017-11-04T07:43:55.128Z,744
2017-11-04T07:44:27.255Z,752
2017-11-04T07:44:59.563Z,756
2017-11-04T07:45:31.744Z,760
2017-11-04T07:46:03.834Z,764
2017-11-04T07:46:36.090Z,768
2017-11-04T07:47:08.283Z,768
2017-11-04T07:47:40.389Z,772
2017-11-04T07:48:12.494Z,768
2017-11-04T07:48:44.704Z,772
2017-11-04T07:49:16.784Z,776
2017-11-04T07:49:48.989Z,772